• Join FlightAware (Why Join?)
  • Login
  • US Flag 
07:04AM EDT


 

Airport Tracker/Info


-or-


 

Live Flight TrackerFlight Track Log ✈ SWA471 ✈ 24-Apr-2013 ✈ KMCI - KDAL

Flight Track Log - Related Links

Times and Time Zones

All times are in EDT time to prevent confusion due to time zone crossing. See the SWA471 flight status page for this flight to view local times or setup timezone preferences in your user account.

Time Position Orientation Groundspeed Altitude Reporting Facility
EDT Latitude Longitude Course Direction KTS MPH feet Rate Location/Type
09:53PM 39.2833 -94.7333 180° South 193 222 2,600  Level Kansas City TRACON
09:54PM 39.2442 -94.7403 188° South 201 231 4,300 2,640 Climbing Kansas City Center
09:55PM 39.1747 -94.7547 189° South 260 299 7,000 3,120 Climbing Kansas City Center
09:56PM 39.0961 -94.7744 191° South 295 339 10,700 2,640 Climbing Kansas City Center
09:57PM 38.9961 -94.8197 199° South 349 402 12,400 2,280 Climbing Kansas City Center
09:58PM 38.8997 -94.8608 198° South 376 433 15,400 2,760 Climbing Kansas City Center
09:59PM 38.7850 -94.9103 199° South 387 445 18,200 2,700 Climbing Kansas City Center
10:00PM 38.6811 -94.9517 197° South 405 466 21,100 2,340 Climbing Kansas City Center
10:01PM 38.5733 -94.9883 195° South 418 481 23,000 2,040 Climbing Kansas City Center
10:02PM 38.4403 -95.0339 195° South 435 501 25,300 1,980 Climbing Kansas City Center
10:03PM 38.3261 -95.0742 195° South 449 517 27,000 2,160 Climbing Kansas City Center
10:04PM 38.2100 -95.1119 194° South 450 518 29,700 3,060 Climbing Kansas City Center
10:05PM 38.0886 -95.1561 196° South 400 460 33,400 2,520 Climbing Kansas City Center
10:06PM 37.9892 -95.1894 195° South 386 444 34,900 1,260 Climbing Kansas City Center
10:07PM 37.8714 -95.2292 195° South 388 447 36,000 540 Climbing Kansas City Center
10:08PM 37.7647 -95.2644 195° South 394 453 36,000  Level Kansas City Center
10:09PM 37.6561 -95.3022 195° South 402 463 36,000  Level Kansas City Center
10:10PM 37.5494 -95.3367 194° South 398 458 36,000  Level Kansas City Center
10:11PM 37.4422 -95.3747 196° South 397 457 36,000  Level Kansas City Center
10:12PM 37.3347 -95.4097 195° South 397 457 36,000  Level Kansas City Center
10:13PM 37.2300 -95.4450 195° South 393 452 36,000  Level Kansas City Center
10:14PM 37.1247 -95.4794 195° South 391 450 36,000  Level Kansas City Center
10:15PM 37.0214 -95.5147 195° South 388 447 36,000  Level Kansas City Center
10:17PM 36.9175 -95.5494 195° South 386 444 36,000  Level Kansas City Center
10:18PM 36.8119 -95.5842 195° South 389 448 36,000  Level Kansas City Center
10:19PM 36.6683 -95.5789 178° South 436 502 36,000  Level Kansas City Center
10:20PM 36.5611 -95.5619 173° South 444 511 36,000  Level Kansas City Center
10:21PM 36.4386 -95.5428 173° South 444 511 36,000  Level Kansas City Center
10:22PM 36.3161 -95.5217 172° South 444 511 36,000  Level Kansas City Center
10:23PM 36.1956 -95.5058 174° South 441 507 36,000  Level Kansas City Center
10:24PM 36.0519 -95.4828 173° South 435 501 36,000  Level Kansas City Center
10:25PM 35.9494 -95.4672 173° South 435 501 36,000  Level Kansas City Center
10:26PM 35.8286 -95.4486 173° South 435 501 36,000  Level Kansas City Center
10:27PM 35.6822 -95.4264 173° South 440 506 36,000  Level Kansas City Center
10:28PM 35.5822 -95.4153 175° South 445 512 36,000  Level Fort Worth Center
10:29PM 35.4589 -95.3978 173° South 445 512 36,000  Level Fort Worth Center
10:30PM 35.3333 -95.3778 173° South 445 512 36,000  Level Fort Worth Center
10:31PM 35.2100 -95.3606 173° South 445 512 36,000  Level Fort Worth Center
10:32PM 35.0847 -95.3433 174° South 450 518 36,000  Level Fort Worth Center
10:33PM 34.9633 -95.3233 172° South 450 518 36,000  Level Fort Worth Center
10:34PM 34.8533 -95.3464 190° South 435 501 36,000 -300 Level Fort Worth Center
10:35PM 34.7603 -95.4067 208° Southwest 385 443 35,500 -720 Descending Fort Worth Center
10:36PM 34.6653 -95.4644 207° Southwest 385 443 34,600 -900 Descending Fort Worth Center
10:37PM 34.5703 -95.5247 208° Southwest 385 443 33,700 -900 Descending Fort Worth Center
10:38PM 34.4689 -95.5872 207° Southwest 392 451 32,800 -960 Descending Fort Worth Center
10:39PM 34.3717 -95.6497 208° Southwest 397 457 31,800 -960 Descending Fort Worth Center
10:40PM 34.2725 -95.7122 208° Southwest 397 457 30,900 -960 Descending Fort Worth Center
10:41PM 34.1731 -95.7742 207° Southwest 402 463 29,900 -1,020 Descending Fort Worth Center
10:42PM 34.0656 -95.8414 207° Southwest 397 457 28,900 -1,260 Descending Fort Worth Center
10:43PM 33.9619 -95.9058 207° Southwest 403 464 27,400 -2,220 Descending Fort Worth Center
10:44PM 33.8606 -95.9728 209° Southwest 403 464 24,500 -3,060 Descending Fort Worth Center
10:45PM 33.7547 -96.0319 205° Southwest 416 479 21,400 -2,880 Descending Fort Worth Center
10:46PM 33.6553 -96.0933 207° Southwest 411 473 18,800 -2,700 Descending Fort Worth Center
10:47PM 33.5619 -96.1522 208° Southwest 392 451 16,000 -2,700 Descending Fort Worth Center
10:48PM 33.4664 -96.2108 207° Southwest 387 445 13,400 -2,340 Descending Fort Worth Center
10:49PM 33.3833 -96.2617 207° Southwest 357 411 11,400 -1,560 Descending Fort Worth Center
10:50PM 33.3067 -96.3075 207° Southwest 327 376 10,300 -1,380 Descending Fort Worth Center
10:51PM 33.2486 -96.3603 217° Southwest 280 322 8,700 -1,260 Descending Fort Worth Center
10:52PM 33.2033 -96.4303 232° Southwest 266 306 7,800 -1,020 Descending Fort Worth Center
10:53PM 33.1431 -96.4856 218° Southwest 278 320 6,700 -1,020 Descending Fort Worth Center
10:54PM 33.0639 -96.5111 195° South 290 334 5,800 -960 Descending Fort Worth Center
10:55PM 32.9972 -96.5317 194° South 285 328 4,800 -900 Descending Fort Worth Center
10:56PM 32.9181 -96.5597 197° South 280 322 4,000 -420 Descending Fort Worth Center
10:57PM 32.8578 -96.5825 198° South 267 307 4,000 -420 Level Fort Worth Center
10:58PM 32.7892 -96.6228 206° Southwest 262 302 3,200 -540 Descending Fort Worth Center
10:59PM 32.7625 -96.6822 242° Southwest 229 264 3,000 -240 Descending Fort Worth Center
11:00PM 32.7586 -96.7464 266° West 193 222 2,800 -540 Descending Fort Worth Center
11:01PM 32.7881 -96.7733 322° Northwest 141 162 2,000 -840 Descending Fort Worth Center
11:02PM 32.8172 -96.8128 311° West 146 168 1,200 -720 Descending Fort Worth Center
11:03PM 32.8667 -96.8333 341° North 174 200 400 -660 Descending Dallas / Fort Worth TRACON